sensor_id;sensor_type;location;lat;lon;timestamp;pressure;altitude;pressure_sealevel;temperature;humidity
62779;BME280;48821;48.796;2.396;2022-07-23T06:01:17;101709.88;;;22.52;62.68
62779;BME280;48821;48.796;2.396;2022-07-23T06:02:28;101706.44;;;22.50;62.86
62779;BME280;48821;48.796;2.396;2022-07-23T06:03:38;101715.22;;;22.52;62.87
62779;BME280;48821;48.796;2.396;2022-07-23T06:04:49;101707.19;;;22.52;63.65
62779;BME280;48821;48.796;2.396;2022-07-23T06:05:59;101713.22;;;22.56;63.14
62779;BME280;48821;48.796;2.396;2022-07-23T06:07:09;101707.84;;;22.56;62.85
62779;BME280;48821;48.796;2.396;2022-07-23T06:08:20;101712.25;;;22.57;62.87
62779;BME280;48821;48.796;2.396;2022-07-23T06:09:30;101715.78;;;22.57;63.06
62779;BME280;48821;48.796;2.396;2022-07-23T06:10:40;101708.81;;;22.55;62.87
62779;BME280;48821;48.796;2.396;2022-07-23T06:11:51;101716.09;;;22.53;63.44
62779;BME280;48821;48.796;2.396;2022-07-23T06:13:02;101711.81;;;22.50;62.94
62779;BME280;48821;48.796;2.396;2022-07-23T06:14:12;101710.94;;;22.49;63.63
62779;BME280;48821;48.796;2.396;2022-07-23T06:15:23;101716.31;;;22.49;63.51
62779;BME280;48821;48.796;2.396;2022-07-23T06:16:33;101711.81;;;22.50;63.42
62779;BME280;48821;48.796;2.396;2022-07-23T06:17:43;101714.50;;;22.50;63.47
62779;BME280;48821;48.796;2.396;2022-07-23T06:18:54;101720.81;;;22.49;63.55
62779;BME280;48821;48.796;2.396;2022-07-23T06:20:06;101720.72;;;22.51;63.25
62779;BME280;48821;48.796;2.396;2022-07-23T06:21:16;101719.75;;;22.52;63.54
62779;BME280;48821;48.796;2.396;2022-07-23T06:22:26;101721.38;;;22.54;63.96
62779;BME280;48821;48.796;2.396;2022-07-23T06:23:37;101722.97;;;22.57;63.32
62779;BME280;48821;48.796;2.396;2022-07-23T06:24:48;101726.41;;;22.59;63.29
62779;BME280;48821;48.796;2.396;2022-07-23T06:25:59;101722.66;;;22.62;63.73
62779;BME280;48821;48.796;2.396;2022-07-23T06:27:09;101722.53;;;22.63;63.27
62779;BME280;48821;48.796;2.396;2022-07-23T06:28:20;101718.78;;;22.66;63.83
62779;BME280;48821;48.796;2.396;2022-07-23T06:29:30;101718.69;;;22.67;63.39
62779;BME280;48821;48.796;2.396;2022-07-23T06:30:40;101732.00;;;22.69;63.66
62779;BME280;48821;48.796;2.396;2022-07-23T06:31:51;101728.44;;;22.68;63.60
62779;BME280;48821;48.796;2.396;2022-07-23T06:33:01;101736.47;;;22.68;63.79
62779;BME280;48821;48.796;2.396;2022-07-23T06:34:12;101730.38;;;22.66;63.27
62779;BME280;48821;48.796;2.396;2022-07-23T06:35:22;101733.06;;;22.66;63.54
62779;BME280;48821;48.796;2.396;2022-07-23T06:36:32;101723.16;;;22.67;63.65
62779;BME280;48821;48.796;2.396;2022-07-23T06:37:43;101730.38;;;22.66;64.17
62779;BME280;48821;48.796;2.396;2022-07-23T06:38:53;101730.38;;;22.66;63.96
62779;BME280;48821;48.796;2.396;2022-07-23T06:40:04;101736.56;;;22.67;63.55
62779;BME280;48821;48.796;2.396;2022-07-23T06:41:14;101739.16;;;22.68;64.23
62779;BME280;48821;48.796;2.396;2022-07-23T06:42:25;101736.31;;;22.72;64.02
62779;BME280;48821;48.796;2.396;2022-07-23T06:43:35;101738.88;;;22.73;63.92
62779;BME280;48821;48.796;2.396;2022-07-23T06:44:46;101739.63;;;22.75;63.65
62779;BME280;48821;48.796;2.396;2022-07-23T06:45:56;101745.72;;;22.77;64.19
62779;BME280;48821;48.796;2.396;2022-07-23T06:47:06;101749.16;;;22.79;63.15
62779;BME280;48821;48.796;2.396;2022-07-23T06:48:17;101746.69;;;22.76;63.90
62779;BME280;48821;48.796;2.396;2022-07-23T06:49:27;101736.19;;;22.73;63.49
62779;BME280;48821;48.796;2.396;2022-07-23T06:50:37;101747.78;;;22.74;64.30
62779;BME280;48821;48.796;2.396;2022-07-23T06:51:48;101745.28;;;22.70;63.62
62779;BME280;48821;48.796;2.396;2022-07-23T06:52:58;101738.22;;;22.69;64.10
62779;BME280;48821;48.796;2.396;2022-07-23T06:54:08;101740.88;;;22.69;64.05
62779;BME280;48821;48.796;2.396;2022-07-23T06:55:19;101742.63;;;22.70;63.87
62779;BME280;48821;48.796;2.396;2022-07-23T06:56:29;101743.47;;;22.71;64.34
62779;BME280;48821;48.796;2.396;2022-07-23T06:57:40;101745.09;;;22.74;63.75
62779;BME280;48821;48.796;2.396;2022-07-23T06:58:50;101744.84;;;22.77;63.81
62779;BME280;48821;48.796;2.396;2022-07-23T07:00:00;101751.94;;;22.78;64.16
62779;BME280;48821;48.796;2.396;2022-07-23T07:01:11;101748.31;;;22.79;64.01
62779;BME280;48821;48.796;2.396;2022-07-23T07:02:21;101752.47;;;22.83;63.59
62779;BME280;48821;48.796;2.396;2022-07-23T07:03:31;101749.69;;;22.85;64.11
62779;BME280;48821;48.796;2.396;2022-07-23T07:04:42;101745.94;;;22.87;63.85
62779;BME280;48821;48.796;2.396;2022-07-23T07:05:52;101754.72;;;22.89;63.81
62779;BME280;48821;48.796;2.396;2022-07-23T07:07:03;101749.16;;;22.92;63.37
62779;BME280;48821;48.796;2.396;2022-07-23T07:08:13;101750.13;;;22.91;63.37
62779;BME280;48821;48.796;2.396;2022-07-23T07:09:23;101755.38;;;22.93;63.58
62779;BME280;48821;48.796;2.396;2022-07-23T07:10:34;101747.53;;;22.90;63.63
62779;BME280;48821;48.796;2.396;2022-07-23T07:11:44;101760.84;;;22.91;63.86
62779;BME280;48821;48.796;2.396;2022-07-23T07:12:54;101761.69;;;22.92;63.98
62779;BME280;48821;48.796;2.396;2022-07-23T07:14:05;101759.13;;;22.90;63.84
62779;BME280;48821;48.796;2.396;2022-07-23T07:15:16;101756.44;;;22.90;63.85
62779;BME280;48821;48.796;2.396;2022-07-23T07:16:27;101758.19;;;22.91;64.00
62779;BME280;48821;48.796;2.396;2022-07-23T07:17:37;101764.28;;;22.93;64.04
62779;BME280;48821;48.796;2.396;2022-07-23T07:18:47;101755.38;;;22.93;63.83
62779;BME280;48821;48.796;2.396;2022-07-23T07:19:58;101759.88;;;22.92;63.64
62779;BME280;48821;48.796;2.396;2022-07-23T07:21:08;101762.56;;;22.92;63.89
62779;BME280;48821;48.796;2.396;2022-07-23T07:22:19;101763.31;;;22.95;63.63
62779;BME280;48821;48.796;2.396;2022-07-23T07:23:29;101772.09;;;22.97;64.24
62779;BME280;48821;48.796;2.396;2022-07-23T07:24:40;101767.59;;;22.97;63.84
62779;BME280;48821;48.796;2.396;2022-07-23T07:25:50;101767.59;;;22.97;63.99
62779;BME280;48821;48.796;2.396;2022-07-23T07:27:00;101769.31;;;22.98;63.85
62779;BME280;48821;48.796;2.396;2022-07-23T07:28:11;101767.50;;;22.99;63.59
62779;BME280;48821;48.796;2.396;2022-07-23T07:29:21;101769.00;;;23.03;62.98
62779;BME280;48821;48.796;2.396;2022-07-23T07:30:31;101774.91;;;23.08;63.93
62779;BME280;48821;48.796;2.396;2022-07-23T07:31:42;101776.38;;;23.12;63.73
62779;BME280;48821;48.796;2.396;2022-07-23T07:32:52;101782.28;;;23.18;63.51
62779;BME280;48821;48.796;2.396;2022-07-23T07:34:02;101783.69;;;23.23;63.24
62779;BME280;48821;48.796;2.396;2022-07-23T07:35:13;101783.22;;;23.30;63.09
62779;BME280;48821;48.796;2.396;2022-07-23T07:36:24;101784.50;;;23.37;63.01
62779;BME280;48821;48.796;2.396;2022-07-23T07:37:34;101782.56;;;23.39;62.76
62779;BME280;48821;48.796;2.396;2022-07-23T07:38:45;101779.78;;;23.41;62.63
62779;BME280;48821;48.796;2.396;2022-07-23T07:39:55;101781.50;;;23.42;62.24
62779;BME280;48821;48.796;2.396;2022-07-23T07:41:06;101785.03;;;23.42;62.87
62779;BME280;48821;48.796;2.396;2022-07-23T07:42:17;101776.25;;;23.40;62.89
62779;BME280;48821;48.796;2.396;2022-07-23T07:43:28;101779.66;;;23.42;62.84
62779;BME280;48821;48.796;2.396;2022-07-23T07:44:38;101778.72;;;23.43;62.41
62779;BME280;48821;48.796;2.396;2022-07-23T07:45:48;101770.34;;;23.48;62.55
62779;BME280;48821;48.796;2.396;2022-07-23T07:46:59;101780.84;;;23.51;62.87
62779;BME280;48821;48.796;2.396;2022-07-23T07:48:09;101781.50;;;23.55;62.58
62779;BME280;48821;48.796;2.396;2022-07-23T07:49:19;101779.91;;;23.52;62.14
62779;BME280;48821;48.796;2.396;2022-07-23T07:50:30;101785.13;;;23.54;62.39
62779;BME280;48821;48.796;2.396;2022-07-23T07:51:40;101782.47;;;23.54;62.38
62779;BME280;48821;48.796;2.396;2022-07-23T07:52:50;101783.44;;;23.53;62.35
62779;BME280;48821;48.796;2.396;2022-07-23T07:54:01;101780.03;;;23.51;62.31
62779;BME280;48821;48.796;2.396;2022-07-23T07:55:11;101782.97;;;23.46;62.31
62779;BME280;48821;48.796;2.396;2022-07-23T07:56:22;101790.28;;;23.44;62.29
62779;BME280;48821;48.796;2.396;2022-07-23T07:57:33;101783.31;;;23.41;62.38
62779;BME280;48821;48.796;2.396;2022-07-23T07:58:43;101794.16;;;23.40;62.06
62779;BME280;48821;48.796;2.396;2022-07-23T07:59:53;101785.25;;;23.39;62.31
62779;BME280;48821;48.796;2.396;2022-07-23T08:01:04;101794.16;;;23.40;62.07
62779;BME280;48821;48.796;2.396;2022-07-23T08:02:14;101793.28;;;23.39;62.43
62779;BME280;48821;48.796;2.396;2022-07-23T08:03:25;101791.47;;;23.40;61.99
62779;BME280;48821;48.796;2.396;2022-07-23T08:04:35;101797.38;;;23.45;62.44
62779;BME280;48821;48.796;2.396;2022-07-23T08:05:45;101791.78;;;23.48;62.25
62779;BME280;48821;48.796;2.396;2022-07-23T08:06:55;101800.16;;;23.56;62.42
62779;BME280;48821;48.796;2.396;2022-07-23T08:08:06;101799.94;;;23.59;62.19
62779;BME280;48821;48.796;2.396;2022-07-23T08:09:16;101794.47;;;23.61;62.03
62779;BME280;48821;48.796;2.396;2022-07-23T08:10:28;101796.06;;;23.64;61.97
62779;BME280;48821;48.796;2.396;2022-07-23T08:11:38;101794.91;;;23.68;61.78
62779;BME280;48821;48.796;2.396;2022-07-23T08:12:52;101793.69;;;23.72;61.95
62779;BME280;48821;48.796;2.396;2022-07-23T08:14:03;101798.59;;;23.78;61.67
62779;BME280;48821;48.796;2.396;2022-07-23T08:15:16;101792.06;;;23.82;61.20
62779;BME280;48821;48.796;2.396;2022-07-23T08:16:26;101802.19;;;23.90;61.46
62779;BME280;48821;48.796;2.396;2022-07-23T08:17:37;101796.63;;;23.93;61.16
62779;BME280;48821;48.796;2.396;2022-07-23T08:18:47;101795.53;;;23.96;61.69
62779;BME280;48821;48.796;2.396;2022-07-23T08:19:58;101801.88;;;23.95;61.12
62779;BME280;48821;48.796;2.396;2022-07-23T08:21:08;101794.56;;;23.97;60.92
62779;BME280;48821;48.796;2.396;2022-07-23T08:22:18;101796.53;;;23.95;60.59
62779;BME280;48821;48.796;2.396;2022-07-23T08:23:29;101798.34;;;23.94;60.08
62779;BME280;48821;48.796;2.396;2022-07-23T08:24:39;101799.44;;;23.92;60.63
62779;BME280;48821;48.796;2.396;2022-07-23T08:25:49;101796.09;;;23.88;60.29
62779;BME280;48821;48.796;2.396;2022-07-23T08:27:00;101799.03;;;23.85;60.74
62779;BME280;48821;48.796;2.396;2022-07-23T08:28:12;101803.41;;;23.86;60.22
62779;BME280;48821;48.796;2.396;2022-07-23T08:29:23;101807.91;;;23.86;60.99
62779;BME280;48821;48.796;2.396;2022-07-23T08:30:33;101799.03;;;23.85;60.32
62779;BME280;48821;48.796;2.396;2022-07-23T08:31:44;101801.59;;;23.87;60.92
62779;BME280;48821;48.796;2.396;2022-07-23T08:33:04;101801.38;;;23.90;60.59
62779;BME280;48821;48.796;2.396;2022-07-23T08:34:14;101807.56;;;23.90;60.70
62779;BME280;48821;48.796;2.396;2022-07-23T08:36:37;101813.94;;;23.89;61.13
62779;BME280;48821;48.796;2.396;2022-07-23T08:37:48;101813.81;;;23.91;60.86
62779;BME280;48821;48.796;2.396;2022-07-23T08:38:59;101819.28;;;23.89;60.88
62779;BME280;48821;48.796;2.396;2022-07-23T08:40:12;101817.69;;;23.87;61.01
62779;BME280;48821;48.796;2.396;2022-07-23T08:41:22;101817.56;;;23.88;61.43
62779;BME280;48821;48.796;2.396;2022-07-23T08:42:33;101820.16;;;23.90;61.09
62779;BME280;48821;48.796;2.396;2022-07-23T08:43:48;101818.09;;;23.93;61.49
62779;BME280;48821;48.796;2.396;2022-07-23T08:44:58;101816.91;;;23.98;61.14
62779;BME280;48821;48.796;2.396;2022-07-23T08:46:09;101815.72;;;24.02;61.45
62779;BME280;48821;48.796;2.396;2022-07-23T08:47:19;101823.63;;;24.03;60.65
62779;BME280;48821;48.796;2.396;2022-07-23T08:48:32;101820.88;;;24.05;60.65
62779;BME280;48821;48.796;2.396;2022-07-23T08:49:43;101824.28;;;24.07;61.08
62779;BME280;48821;48.796;2.396;2022-07-23T08:50:58;101823.94;;;24.12;60.79
62779;BME280;48821;48.796;2.396;2022-07-23T08:52:08;101827.16;;;24.17;60.69
62779;BME280;48821;48.796;2.396;2022-07-23T08:53:20;101825.94;;;24.21;60.60
62779;BME280;48821;48.796;2.396;2022-07-23T08:54:34;101826.34;;;24.28;60.37
62779;BME280;48821;48.796;2.396;2022-07-23T08:55:46;101821.63;;;24.32;60.66
62779;BME280;48821;48.796;2.396;2022-07-23T08:56:56;101827.50;;;24.37;60.32
62779;BME280;48821;48.796;2.396;2022-07-23T08:58:07;101826.31;;;24.41;60.35
62779;BME280;48821;48.796;2.396;2022-07-23T08:59:17;101829.59;;;24.45;60.23
62779;BME280;48821;48.796;2.396;2022-07-23T09:00:28;101827.69;;;24.47;60.12
62779;BME280;48821;48.796;2.396;2022-07-23T09:01:39;101830.09;;;24.50;60.00
62779;BME280;48821;48.796;2.396;2022-07-23T09:02:50;101828.06;;;24.54;60.19
62779;BME280;48821;48.796;2.396;2022-07-23T09:04:01;101834.91;;;24.58;59.46
62779;BME280;48821;48.796;2.396;2022-07-23T09:05:14;101833.59;;;24.64;59.74
62779;BME280;48821;48.796;2.396;2022-07-23T09:06:25;101824.53;;;24.65;59.62
62779;BME280;48821;48.796;2.396;2022-07-23T09:07:35;101831.50;;;24.67;59.34
62779;BME280;48821;48.796;2.396;2022-07-23T09:08:45;101831.28;;;24.70;59.22
62779;BME280;48821;48.796;2.396;2022-07-23T09:10:09;101827.38;;;24.75;58.75
62779;BME280;48821;48.796;2.396;2022-07-23T09:11:20;101832.53;;;24.78;59.21
62779;BME280;48821;48.796;2.396;2022-07-23T09:12:30;101836.59;;;24.83;58.86
62779;BME280;48821;48.796;2.396;2022-07-23T09:13:41;101829.84;;;24.89;58.96
62779;BME280;48821;48.796;2.396;2022-07-23T09:14:53;101835.84;;;24.93;58.95
62779;BME280;48821;48.796;2.396;2022-07-23T09:16:25;101842.69;;;24.97;58.39
62779;BME280;48821;48.796;2.396;2022-07-23T09:17:39;101825.97;;;24.93;58.25
62779;BME280;48821;48.796;2.396;2022-07-23T09:18:57;101835.00;;;24.92;58.06
62779;BME280;48821;48.796;2.396;2022-07-23T09:20:13;101830.72;;;24.90;58.60
62779;BME280;48821;48.796;2.396;2022-07-23T09:22:34;101826.69;;;24.95;58.61
62779;BME280;48821;48.796;2.396;2022-07-23T09:26:24;101819.84;;;24.91;57.98
62779;BME280;48821;48.796;2.396;2022-07-23T09:27:55;101821.56;;;24.92;58.11
62779;BME280;48821;48.796;2.396;2022-07-23T09:29:19;101818.50;;;24.97;58.23
62779;BME280;48821;48.796;2.396;2022-07-23T09:30:31;101823.03;;;24.97;57.75
62779;BME280;48821;48.796;2.396;2022-07-23T09:33:10;101818.88;;;24.92;57.77
62779;BME280;48821;48.796;2.396;2022-07-23T09:34:23;101814.47;;;24.91;58.29
62779;BME280;48821;48.796;2.396;2022-07-23T09:35:50;101821.44;;;24.94;57.94
62779;BME280;48821;48.796;2.396;2022-07-23T09:37:14;101809.09;;;24.91;57.54
62779;BME280;48821;48.796;2.396;2022-07-23T09:38:25;101820.81;;;24.90;57.87
62779;BME280;48821;48.796;2.396;2022-07-23T09:39:35;101835.22;;;24.89;57.59
62779;BME280;48821;48.796;2.396;2022-07-23T09:40:46;101819.97;;;24.90;56.96
62779;BME280;48821;48.796;2.396;2022-07-23T09:41:58;101827.53;;;24.84;57.50
62779;BME280;48821;48.796;2.396;2022-07-23T09:43:28;101826.06;;;24.80;57.61
62779;BME280;48821;48.796;2.396;2022-07-23T09:44:50;101826.41;;;24.76;57.02
62779;BME280;48821;48.796;2.396;2022-07-23T09:46:21;101822.25;;;24.71;57.21
62779;BME280;48821;48.796;2.396;2022-07-23T09:47:32;101825.03;;;24.70;57.97
62779;BME280;48821;48.796;2.396;2022-07-23T09:48:42;101818.94;;;24.68;58.11
62779;BME280;48821;48.796;2.396;2022-07-23T09:51:09;101815.63;;;24.64;57.72
62779;BME280;48821;48.796;2.396;2022-07-23T09:52:26;101825.41;;;24.65;57.93
62779;BME280;48821;48.796;2.396;2022-07-23T09:53:37;101824.44;;;24.66;58.33
62779;BME280;48821;48.796;2.396;2022-07-23T09:54:57;101822.47;;;24.68;58.15
62779;BME280;48821;48.796;2.396;2022-07-23T09:56:08;101827.63;;;24.71;57.95
62779;BME280;48821;48.796;2.396;2022-07-23T09:57:20;101824.69;;;24.75;58.00
62779;BME280;48821;48.796;2.396;2022-07-23T09:58:31;101827.16;;;24.78;57.71
62779;BME280;48821;48.796;2.396;2022-07-23T09:59:43;101828.63;;;24.82;57.84
62779;BME280;48821;48.796;2.396;2022-07-23T10:00:55;101825.56;;;24.87;57.62
62779;BME280;48821;48.796;2.396;2022-07-23T10:02:11;101826.94;;;24.92;57.35
62779;BME280;48821;48.796;2.396;2022-07-23T10:03:25;101831.22;;;24.95;57.56
62779;BME280;48821;48.796;2.396;2022-07-23T10:04:36;101832.69;;;24.99;57.29
62779;BME280;48821;48.796;2.396;2022-07-23T10:05:47;101830.88;;;25.00;57.28
62779;BME280;48821;48.796;2.396;2022-07-23T10:07:00;101829.78;;;25.02;57.12
62779;BME280;48821;48.796;2.396;2022-07-23T10:08:12;101819.75;;;25.04;56.69
62779;BME280;48821;48.796;2.396;2022-07-23T10:09:34;101826.75;;;25.07;56.87
62779;BME280;48821;48.796;2.396;2022-07-23T10:10:47;101823.81;;;25.10;56.77
62779;BME280;48821;48.796;2.396;2022-07-23T10:12:00;101814.03;;;25.09;56.53
62779;BME280;48821;48.796;2.396;2022-07-23T10:13:31;101817.34;;;25.13;56.70
62779;BME280;48821;48.796;2.396;2022-07-23T10:14:57;101824.31;;;25.15;56.43
62779;BME280;48821;48.796;2.396;2022-07-23T10:16:07;101825.28;;;25.14;56.26
62779;BME280;48821;48.796;2.396;2022-07-23T10:17:18;101818.44;;;25.10;56.38
62779;BME280;48821;48.796;2.396;2022-07-23T10:18:30;101829.31;;;25.09;57.11
62779;BME280;48821;48.796;2.396;2022-07-23T10:19:41;101821.13;;;25.10;57.01
62779;BME280;48821;48.796;2.396;2022-07-23T10:20:51;101812.94;;;25.12;57.12
62779;BME280;48821;48.796;2.396;2022-07-23T10:22:06;101824.31;;;25.15;56.18
62779;BME280;48821;48.796;2.396;2022-07-23T10:23:41;101818.94;;;25.15;56.50
62779;BME280;48821;48.796;2.396;2022-07-23T10:26:35;101819.53;;;25.19;56.65
62779;BME280;48821;48.796;2.396;2022-07-23T10:28:02;101820.25;;;25.21;55.78
62779;BME280;48821;48.796;2.396;2022-07-23T10:31:40;101824.53;;;25.24;56.51
62779;BME280;48821;48.796;2.396;2022-07-23T10:33:12;101817.97;;;25.28;56.45
62779;BME280;48821;48.796;2.396;2022-07-23T10:35:07;101818.19;;;25.36;56.35
62779;BME280;48821;48.796;2.396;2022-07-23T10:36:34;101825.06;;;25.40;56.79
62779;BME280;48821;48.796;2.396;2022-07-23T10:37:51;101819.41;;;25.44;55.78
62779;BME280;48821;48.796;2.396;2022-07-23T10:39:08;101821.13;;;25.45;55.04
62779;BME280;48821;48.796;2.396;2022-07-23T10:40:23;101813.19;;;25.43;55.33
62779;BME280;48821;48.796;2.396;2022-07-23T10:41:35;101821.50;;;25.40;55.64
62779;BME280;48821;48.796;2.396;2022-07-23T10:42:47;101821.50;;;25.40;55.95
62779;BME280;48821;48.796;2.396;2022-07-23T10:44:09;101823.09;;;25.43;56.10
62779;BME280;48821;48.796;2.396;2022-07-23T10:45:30;101825.56;;;25.46;56.03
62779;BME280;48821;48.796;2.396;2022-07-23T10:47:01;101825.28;;;25.49;56.41
62779;BME280;48821;48.796;2.396;2022-07-23T10:48:30;101829.81;;;25.48;55.81
62779;BME280;48821;48.796;2.396;2022-07-23T10:49:41;101825.03;;;25.52;55.96
62779;BME280;48821;48.796;2.396;2022-07-23T10:51:11;101829.31;;;25.55;55.90
62779;BME280;48821;48.796;2.396;2022-07-23T10:52:26;101830.91;;;25.57;56.00
62779;BME280;48821;48.796;2.396;2022-07-23T10:56:13;101831.03;;;25.67;55.70
62779;BME280;48821;48.796;2.396;2022-07-23T10:57:25;101834.25;;;25.72;55.41
62779;BME280;48821;48.796;2.396;2022-07-23T10:58:47;101824.06;;;25.76;55.67
62779;BME280;48821;48.796;2.396;2022-07-23T11:01:38;101827.63;;;25.77;55.55
62779;BME280;48821;48.796;2.396;2022-07-23T11:02:53;101833.63;;;25.80;55.47
62779;BME280;48821;48.796;2.396;2022-07-23T11:04:05;101831.66;;;25.82;55.34
62779;BME280;48821;48.796;2.396;2022-07-23T11:05:20;101835.78;;;25.87;54.86
62779;BME280;48821;48.796;2.396;2022-07-23T11:13:47;101849.00;;;25.90;54.63
62779;BME280;48821;48.796;2.396;2022-07-23T11:17:26;101857.47;;;25.85;55.14
62779;BME280;48821;48.796;2.396;2022-07-23T11:22:37;101864.06;;;25.81;55.02
62779;BME280;48821;48.796;2.396;2022-07-23T11:25:07;101865.41;;;25.87;55.35
62779;BME280;48821;48.796;2.396;2022-07-23T11:27:48;101862.19;;;25.93;54.73
62779;BME280;48821;48.796;2.396;2022-07-23T11:30:40;101860.00;;;25.98;54.53
62779;BME280;48821;48.796;2.396;2022-07-23T11:35:42;101860.00;;;25.98;54.12
62779;BME280;48821;48.796;2.396;2022-07-23T11:36:52;101863.31;;;26.02;54.81
62779;BME280;48821;48.796;2.396;2022-07-23T11:38:16;101859.03;;;25.99;53.57
62779;BME280;48821;48.796;2.396;2022-07-23T11:39:29;101861.25;;;25.94;54.60
62779;BME280;48821;48.796;2.396;2022-07-23T11:40:40;101852.44;;;25.92;53.91
62779;BME280;48821;48.796;2.396;2022-07-23T11:41:51;101859.50;;;25.93;54.27
62779;BME280;48821;48.796;2.396;2022-07-23T11:43:05;101859.41;;;25.94;54.62
62779;BME280;48821;48.796;2.396;2022-07-23T11:44:36;101856.72;;;25.94;54.38
62779;BME280;48821;48.796;2.396;2022-07-23T11:45:50;101851.44;;;25.93;53.85
62779;BME280;48821;48.796;2.396;2022-07-23T11:47:10;101858.53;;;25.94;53.65
62779;BME280;48821;48.796;2.396;2022-07-23T11:48:24;101855.13;;;25.92;54.10
62779;BME280;48821;48.796;2.396;2022-07-23T11:49:35;101864.91;;;25.93;54.19
62779;BME280;48821;48.796;2.396;2022-07-23T11:50:46;101858.53;;;25.94;54.08
62779;BME280;48821;48.796;2.396;2022-07-23T11:53:29;101860.38;;;25.93;54.07
62779;BME280;48821;48.796;2.396;2022-07-23T11:54:59;101856.97;;;25.91;53.79
62779;BME280;48821;48.796;2.396;2022-07-23T11:56:11;101860.03;;;25.87;54.32
62779;BME280;48821;48.796;2.396;2022-07-23T11:57:28;101853.91;;;25.84;53.28
62779;BME280;48821;48.796;2.396;2022-07-23T11:58:54;101861.75;;;25.76;53.97
62779;BME280;48821;48.796;2.396;2022-07-23T12:00:15;101863.47;;;25.77;53.82
62779;BME280;48821;48.796;2.396;2022-07-23T12:01:26;101865.16;;;25.78;53.53
62779;BME280;48821;48.796;2.396;2022-07-23T12:02:44;101858.81;;;25.79;53.94
62779;BME280;48821;48.796;2.396;2022-07-23T12:03:55;101858.94;;;25.78;53.46
62779;BME280;48821;48.796;2.396;2022-07-23T12:05:06;101860.78;;;25.77;53.70
62779;BME280;48821;48.796;2.396;2022-07-23T12:06:16;101863.47;;;25.77;54.00
62779;BME280;48821;48.796;2.396;2022-07-23T12:07:32;101851.97;;;25.75;53.47
62779;BME280;48821;48.796;2.396;2022-07-23T12:08:43;101851.97;;;25.75;53.71
62779;BME280;48821;48.796;2.396;2022-07-23T12:09:55;101849.16;;;25.77;54.33
62779;BME280;48821;48.796;2.396;2022-07-23T12:11:06;101852.56;;;25.79;54.09
62779;BME280;48821;48.796;2.396;2022-07-23T12:12:16;101844.50;;;25.79;53.51
62779;BME280;48821;48.796;2.396;2022-07-23T12:13:27;101854.53;;;25.77;53.38
62779;BME280;48821;48.796;2.396;2022-07-23T12:14:50;101842.31;;;25.72;53.12
62779;BME280;48821;48.796;2.396;2022-07-23T12:16:01;101845.06;;;25.71;52.64
62779;BME280;48821;48.796;2.396;2022-07-23T12:17:11;101845.34;;;25.68;52.63
62779;BME280;48821;48.796;2.396;2022-07-23T12:18:25;101843.63;;;25.67;53.19
62779;BME280;48821;48.796;2.396;2022-07-23T12:19:36;101849.00;;;25.67;53.27
62779;BME280;48821;48.796;2.396;2022-07-23T12:20:55;101852.66;;;25.66;52.75
62779;BME280;48821;48.796;2.396;2022-07-23T12:22:10;101850.97;;;25.65;53.25
62779;BME280;48821;48.796;2.396;2022-07-23T12:23:24;101845.34;;;25.68;54.20
62779;BME280;48821;48.796;2.396;2022-07-23T12:25:00;101845.34;;;25.68;53.95
62779;BME280;48821;48.796;2.396;2022-07-23T12:26:12;101847.03;;;25.69;54.11
62779;BME280;48821;48.796;2.396;2022-07-23T12:27:23;101851.31;;;25.71;54.04
62779;BME280;48821;48.796;2.396;2022-07-23T12:28:34;101842.53;;;25.69;53.60
62779;BME280;48821;48.796;2.396;2022-07-23T12:29:47;101850.47;;;25.71;53.10
62779;BME280;48821;48.796;2.396;2022-07-23T12:30:58;101845.06;;;25.71;53.28
62779;BME280;48821;48.796;2.396;2022-07-23T12:32:23;101840.56;;;25.71;53.30
62779;BME280;48821;48.796;2.396;2022-07-23T12:33:37;101848.56;;;25.73;53.88
62779;BME280;48821;48.796;2.396;2022-07-23T12:34:49;101841.31;;;25.73;53.28
62779;BME280;48821;48.796;2.396;2022-07-23T12:36:03;101834.72;;;25.78;53.94
62779;BME280;48821;48.796;2.396;2022-07-23T12:37:27;101827.97;;;25.83;53.42
62779;BME280;48821;48.796;2.396;2022-07-23T12:38:43;101836.75;;;25.85;53.18
62779;BME280;48821;48.796;2.396;2022-07-23T12:39:54;101834.34;;;25.82;52.93
62779;BME280;48821;48.796;2.396;2022-07-23T12:41:04;101832.75;;;25.80;52.65
62779;BME280;48821;48.796;2.396;2022-07-23T12:42:15;101828.47;;;25.77;52.79
62779;BME280;48821;48.796;2.396;2022-07-23T12:43:36;101839.34;;;25.76;53.03
62779;BME280;48821;48.796;2.396;2022-07-23T12:45:10;101834.81;;;25.76;53.17
62779;BME280;48821;48.796;2.396;2022-07-23T12:46:21;101832.41;;;25.73;52.79
62779;BME280;48821;48.796;2.396;2022-07-23T12:49:08;101833.25;;;25.73;52.57
62779;BME280;48821;48.796;2.396;2022-07-23T12:51:51;101834.97;;;25.75;52.56
62779;BME280;48821;48.796;2.396;2022-07-23T12:53:11;101833.25;;;25.73;52.76
62779;BME280;48821;48.796;2.396;2022-07-23T12:54:27;101835.94;;;25.73;52.62
62779;BME280;48821;48.796;2.396;2022-07-23T12:55:39;101826.16;;;25.72;52.67
62779;BME280;48821;48.796;2.396;2022-07-23T12:56:50;101831.53;;;25.72;52.54
62779;BME280;48821;48.796;2.396;2022-07-23T12:59:18;101828.72;;;25.74;52.87
62779;BME280;48821;48.796;2.396;2022-07-23T13:00:29;101817.19;;;25.72;52.73
62779;BME280;48821;48.796;2.396;2022-07-23T13:01:41;101820.63;;;25.74;53.14
62779;BME280;48821;48.796;2.396;2022-07-23T13:02:51;101821.38;;;25.76;52.96
62779;BME280;48821;48.796;2.396;2022-07-23T13:05:12;101823.94;;;25.78;52.17
62779;BME280;48821;48.796;2.396;2022-07-23T13:06:22;101812.31;;;25.77;52.26
62779;BME280;48821;48.796;2.396;2022-07-23T13:07:33;101818.66;;;25.76;51.30
62779;BME280;48821;48.796;2.396;2022-07-23T13:08:43;101812.31;;;25.77;52.12